Time;durP1;ratioP1;P1;durP2;ratioP2;P2;SDS_P1;SDS_P2;PMS_P1;PMS_P2;Temp;Humidity;BMP_temperature;BMP_pressure;BME280_temperature;BME280_humidity;BME280_pressure;Samples;Min_cycle;Max_cycle;Signal;HPM_P1;HPM_P2
2022/01/13 00:02:03;;;;;;;6.50;1.98;;;;;;;-4.06;89.47;97861.81;4982479;28;20082;-81
2022/01/13 00:04:34;;;;;;;10.35;2.60;;;;;;;-3.81;89.53;97883.13;4982736;28;20093;-81
2022/01/13 00:07:06;;;;;;;8.18;2.33;;;;;;;-4.04;89.78;97865.22;4982580;28;20054;-81
2022/01/13 00:09:36;;;;;;;6.13;2.78;;;;;;;-3.72;89.48;97897.59;4982301;28;20298;-81
2022/01/13 00:12:09;;;;;;;8.93;2.92;;;;;;;-3.71;89.40;97878.91;4982596;28;20053;-81
2022/01/13 00:14:57;;;;;;;9.02;2.72;;;;;;;-3.69;89.48;97882.31;4982433;28;20126;-81
2022/01/13 00:17:45;;;;;;;8.60;3.10;;;;;;;-3.69;89.65;97882.31;4982026;28;20046;-81
2022/01/13 00:20:34;;;;;;;8.60;3.35;;;;;;;-3.93;89.38;97843.13;4982407;28;20315;-81
2022/01/13 00:25:58;;;;;;;7.72;3.13;;;;;;;-3.73;89.81;97875.50;4982323;28;20106;-81
2022/01/13 00:28:29;;;;;;;8.95;3.20;;;;;;;-3.86;89.72;97840.59;4982322;28;20055;-81
2022/01/13 00:31:05;;;;;;;5.20;2.40;;;;;;;-3.75;89.34;97849.97;4982205;28;20093;-81
2022/01/13 00:33:36;;;;;;;8.65;2.03;;;;;;;-3.78;89.53;97851.69;4982556;28;20054;-81
2022/01/13 00:36:07;;;;;;;7.50;2.47;;;;;;;-3.71;89.72;97858.50;4982406;28;20043;-81
2022/01/13 00:38:38;;;;;;;7.78;2.30;;;;;;;-3.70;89.62;97861.03;4984397;28;20074;-81
2022/01/13 00:41:09;;;;;;;8.32;2.50;;;;;;;-3.71;89.33;97850.84;4986413;28;20082;-81
2022/01/13 00:43:42;;;;;;;8.73;2.85;;;;;;;-3.72;89.68;97861.88;4986047;28;20577;-80
2022/01/13 00:46:20;;;;;;;12.38;3.15;;;;;;;-3.70;89.74;97844.88;4985964;28;20046;-81
2022/01/13 00:48:54;;;;;;;9.00;2.58;;;;;;;-3.99;89.41;97804.03;4986144;28;20101;-81
2022/01/13 00:51:26;;;;;;;8.80;2.85;;;;;;;-3.90;89.48;97817.63;4985953;28;20117;-81
2022/01/13 00:54:03;;;;;;;5.35;2.15;;;;;;;-3.69;89.36;97851.69;4986056;28;20114;-80
2022/01/13 00:56:34;;;;;;;11.02;2.67;;;;;;;-3.74;89.06;97838.09;4986014;28;20057;-81
2022/01/13 00:59:07;;;;;;;8.13;2.20;;;;;;;-3.74;89.57;97848.28;4985958;28;20061;-80
2022/01/13 01:01:42;;;;;;;6.57;2.53;;;;;;;-3.68;89.50;97843.19;4986059;28;20335;-81
2022/01/13 01:04:14;;;;;;;4.28;2.10;;;;;;;-4.53;89.19;97709.53;4985842;28;20138;-81
2022/01/13 01:06:47;;;;;;;7.53;2.53;;;;;;;-3.90;88.71;97789.56;4985712;28;20054;-81
2022/01/13 01:09:25;;;;;;;6.80;2.13;;;;;;;-3.69;88.96;97836.38;4985663;28;20093;-80
2022/01/13 01:11:58;;;;;;;13.90;3.33;;;;;;;-3.91;89.19;97798.06;4984339;28;20070;-80
2022/01/13 01:14:32;;;;;;;12.10;3.08;;;;;;;-3.66;89.30;97831.28;4985566;28;20304;-80
2022/01/13 01:17:05;;;;;;;9.90;3.28;;;;;;;-3.63;89.28;97805.75;4985496;28;20054;-80
2022/01/13 01:19:37;;;;;;;12.18;2.60;;;;;;;-3.68;89.29;97812.56;4985217;28;20058;-81
2022/01/13 01:22:35;;;;;;;9.35;2.65;;;;;;;-3.63;89.60;97821.06;4985690;28;20062;-81
2022/01/13 01:25:32;;;;;;;9.77;2.50;;;;;;;-3.60;89.30;97805.75;4985444;28;20114;-80
2022/01/13 01:28:13;;;;;;;11.25;2.60;;;;;;;-3.50;88.85;97822.75;4985270;28;20253;-81
2022/01/13 01:30:47;;;;;;;9.50;2.10;;;;;;;-3.51;88.71;97815.97;4985365;28;20055;-81
2022/01/13 01:33:20;;;;;;;12.90;2.67;;;;;;;-3.50;88.47;97793.84;4985139;28;20059;-81
2022/01/13 01:35:51;;;;;;;10.32;2.60;;;;;;;-3.51;88.66;97798.09;4985261;28;20065;-81
2022/01/13 01:38:22;;;;;;;8.02;2.03;;;;;;;-3.59;88.32;97770.88;4985153;28;20483;-81
2022/01/13 01:40:53;;;;;;;11.20;2.30;;;;;;;-3.57;88.71;97770.03;4989799;28;20046;-81
2022/01/13 01:43:24;;;;;;;4.55;2.08;;;;;;;-3.56;88.74;97787.03;4993014;28;20042;-80
2022/01/13 01:45:56;;;;;;;13.10;2.05;;;;;;;-3.56;88.54;97766.63;5004429;28;20097;-81
2022/01/13 01:48:30;;;;;;;7.53;2.55;;;;;;;-3.52;88.06;97778.53;5004406;28;20066;-81
2022/01/13 01:51:02;;;;;;;10.40;2.58;;;;;;;-3.55;88.57;97768.31;4994550;28;20074;-81
2022/01/13 01:53:33;;;;;;;9.18;2.83;;;;;;;-3.48;88.19;97770.00;5004422;28;20090;-81
2022/01/13 01:56:04;;;;;;;7.30;2.45;;;;;;;-3.46;88.24;97772.56;4989899;28;20114;-82
2022/01/13 01:58:36;;;;;;;7.45;1.83;;;;;;;-3.44;87.98;97754.69;4994668;28;20059;-82
2022/01/13 02:01:07;;;;;;;6.70;3.20;;;;;;;-3.50;87.99;97751.28;4991647;28;20078;-82
2022/01/13 02:03:40;;;;;;;6.57;1.80;;;;;;;-3.58;87.82;97736.84;4992601;28;20101;-81
2022/01/13 02:06:11;;;;;;;6.93;1.90;;;;;;;-3.43;88.22;97746.19;4993244;28;20050;-80
2022/01/13 02:08:41;;;;;;;10.10;2.38;;;;;;;-3.44;88.10;97754.69;4994322;28;20343;-81
2022/01/13 02:11:12;;;;;;;6.88;2.70;;;;;;;-3.40;88.28;97741.91;4994115;28;20090;-81
2022/01/13 02:13:49;;;;;;;9.13;2.22;;;;;;;-3.57;88.19;97724.09;4990464;28;20117;-81
2022/01/13 02:16:37;;;;;;;8.18;1.90;;;;;;;-3.39;87.94;97774.28;4992273;28;20102;-81
2022/01/13 02:19:11;;;;;;;6.35;1.63;;;;;;;-3.40;88.13;97746.19;4992694;28;20110;-80
2022/01/13 02:21:44;;;;;;;9.07;2.65;;;;;;;-3.56;88.58;97720.69;4994231;28;20050;-80
2022/01/13 02:24:15;;;;;;;10.63;2.38;;;;;;;-3.48;88.51;97713.84;4994265;28;20082;-80
2022/01/13 02:26:46;;;;;;;9.60;2.45;;;;;;;-3.70;87.92;97712.16;4991169;28;20089;-80
2022/01/13 02:29:17;;;;;;;7.28;2.50;;;;;;;-3.50;87.87;97741.06;4992161;28;20616;-79
2022/01/13 02:31:48;;;;;;;4.97;1.77;;;;;;;-3.85;87.95;97696.88;4992860;28;20117;-80
2022/01/13 02:34:22;;;;;;;7.55;2.58;;;;;;;-3.49;88.03;97732.59;4993986;28;20082;-80
2022/01/13 02:36:56;;;;;;;7.60;2.20;;;;;;;-3.81;88.52;97673.06;4991134;28;20057;-80
2022/01/13 02:39:29;;;;;;;5.88;1.90;;;;;;;-3.77;88.49;97679.84;4991828;28;20053;-80
2022/01/13 02:42:01;;;;;;;9.93;2.25;;;;;;;-4.02;88.63;97633.09;4978991;28;20111;-82
2022/01/13 02:44:32;;;;;;;7.30;2.42;;;;;;;-3.44;88.69;97711.28;4984090;28;20053;-82
2022/01/13 02:47:20;;;;;;;10.15;2.92;;;;;;;-3.42;88.28;97699.38;4975734;28;20097;-82
2022/01/13 02:50:11;;;;;;;8.48;2.30;;;;;;;-3.48;88.15;97703.63;4981190;28;20054;-80
2022/01/13 02:52:43;;;;;;;8.77;3.50;;;;;;;-3.48;87.90;97682.38;5003318;28;20085;-82
2022/01/13 02:55:14;;;;;;;4.38;1.88;;;;;;;-3.43;87.88;97679.81;4991271;28;20062;-82
2022/01/13 02:57:45;;;;;;;10.95;2.65;;;;;;;-3.39;87.87;97689.19;4982829;28;20094;-82
2022/01/13 03:00:18;;;;;;;8.68;2.20;;;;;;;-3.41;87.59;97673.84;4980302;28;20235;-81
2022/01/13 03:02:49;;;;;;;8.50;2.05;;;;;;;-3.35;88.14;97678.09;4982816;28;20086;-81
2022/01/13 03:05:20;;;;;;;5.45;1.60;;;;;;;-3.34;87.54;97684.91;4997453;28;20084;-82
2022/01/13 03:07:56;;;;;;;5.03;1.80;;;;;;;-3.30;87.79;97677.22;4993923;28;20303;-82
2022/01/13 03:10:27;;;;;;;4.95;2.20;;;;;;;-3.38;87.56;97683.22;4991023;28;20050;-83
2022/01/13 03:12:59;;;;;;;4.90;1.98;;;;;;;-3.41;87.80;97673.00;4990918;28;20057;-82
2022/01/13 03:15:30;;;;;;;6.95;2.15;;;;;;;-3.35;88.06;97680.63;4990449;28;20054;-82
2022/01/13 03:18:00;;;;;;;9.80;2.20;;;;;;;-3.39;87.79;97673.84;4988297;28;20092;-83
2022/01/13 03:20:32;;;;;;;7.13;2.50;;;;;;;-3.37;88.00;97637.25;4989906;28;20042;-83
2022/01/13 03:23:05;;;;;;;6.78;2.20;;;;;;;-3.39;88.49;97666.19;4989658;28;20073;-83
2022/01/13 03:25:36;;;;;;;9.95;2.33;;;;;;;-3.33;88.35;97676.38;4963816;28;20263;-83
2022/01/13 03:28:14;;;;;;;9.70;3.13;;;;;;;-3.28;88.33;97649.13;4963577;28;20054;-82
2022/01/13 03:30:45;;;;;;;7.90;2.80;;;;;;;-3.29;88.17;97688.28;4963560;28;20062;-81
2022/01/13 03:33:16;;;;;;;5.78;1.77;;;;;;;-3.39;87.70;97671.31;4966573;28;20050;-81
2022/01/13 03:35:47;;;;;;;8.70;2.35;;;;;;;-3.35;88.32;97662.75;4982987;28;20216;-81
2022/01/13 03:38:20;;;;;;;10.75;2.30;;;;;;;-3.34;88.63;97659.38;4983298;28;20092;-82
2022/01/13 03:40:51;;;;;;;7.10;2.55;;;;;;;-3.27;88.02;97630.38;4982971;28;20086;-81
2022/01/13 03:43:21;;;;;;;7.57;2.25;;;;;;;-3.29;88.20;97642.34;4982766;28;20078;-80
2022/01/13 03:45:52;;;;;;;6.43;2.40;;;;;;;-3.25;88.08;97654.22;4982735;28;20078;-80
2022/01/13 03:48:23;;;;;;;14.10;2.72;;;;;;;-3.47;88.00;97618.56;4982846;28;20246;-81
2022/01/13 03:50:55;;;;;;;8.18;2.42;;;;;;;-3.36;88.12;97633.00;4982802;28;20093;-80
2022/01/13 03:54:16;;;;;;;7.63;2.15;;;;;;;-3.70;88.59;97590.53;4983059;28;20055;-80
2022/01/13 03:57:37;;;;;;;10.80;3.28;;;;;;;-3.35;88.65;97652.56;4947090;28;20082;-80
2022/01/13 04:00:58;;;;;;;9.05;2.60;;;;;;;-3.49;88.74;97630.47;4982381;28;20055;-81
2022/01/13 04:03:32;;;;;;;4.68;2.33;;;;;;;-3.34;88.87;97644.06;4982394;28;20047;-81
2022/01/13 04:06:10;;;;;;;6.13;2.38;;;;;;;-3.30;88.74;97636.34;4982456;28;20058;-83
2022/01/13 04:08:42;;;;;;;10.93;2.72;;;;;;;-3.35;88.78;97632.13;4987869;28;20064;-81
2022/01/13 04:11:21;;;;;;;12.25;2.60;;;;;;;-3.32;88.33;97596.34;4983557;28;20051;-80
2022/01/13 04:13:56;;;;;;;7.80;2.53;;;;;;;-3.32;88.26;97606.56;4980986;28;20062;-80
2022/01/13 04:16:30;;;;;;;11.80;2.22;;;;;;;-3.44;88.42;97614.28;4981576;28;20050;-80
2022/01/13 04:19:04;;;;;;;3.78;2.20;;;;;;;-3.30;88.61;97623.59;4977840;28;20097;-80
2022/01/13 04:21:37;;;;;;;11.95;2.60;;;;;;;-3.54;88.74;97588.78;4981993;28;20326;-80
2022/01/13 04:24:12;;;;;;;6.63;2.78;;;;;;;-3.38;88.35;97635.53;4986126;28;20082;-80
2022/01/13 04:26:44;;;;;;;12.73;2.88;;;;;;;-3.36;88.41;97625.34;4986057;28;20050;-80
2022/01/13 04:29:27;;;;;;;5.95;2.35;;;;;;;-3.37;89.05;97633.81;4988045;28;20073;-79
2022/01/13 04:32:00;;;;;;;6.15;2.10;;;;;;;-3.41;88.80;97606.63;4990418;28;20058;-79
2022/01/13 04:34:31;;;;;;;8.70;2.50;;;;;;;-3.42;89.10;97607.47;4990482;28;20042;-80
2022/01/13 04:37:03;;;;;;;9.18;2.78;;;;;;;-3.58;89.43;97597.31;4991118;28;20081;-80
2022/01/13 04:39:35;;;;;;;8.38;2.20;;;;;;;-3.43;89.18;97619.38;4986006;28;20063;-80
2022/01/13 04:42:07;;;;;;;9.43;2.58;;;;;;;-3.39;89.08;97622.78;4988829;28;20050;-80
2022/01/13 04:44:38;;;;;;;12.73;3.08;;;;;;;-3.52;89.09;97610.06;4986663;28;20050;-80
2022/01/13 04:47:11;;;;;;;13.30;2.90;;;;;;;-3.38;89.50;97627.03;4989912;28;20106;-79
2022/01/13 04:49:45;;;;;;;11.38;2.90;;;;;;;-3.41;89.39;97609.19;4986754;28;20054;-80
2022/01/13 04:52:17;;;;;;;8.73;2.83;;;;;;;-3.39;89.31;97630.47;4988702;28;20054;-79
2022/01/13 04:54:48;;;;;;;13.88;3.60;;;;;;;-3.50;89.38;97618.53;4989019;28;20081;-79
2022/01/13 04:57:19;;;;;;;9.63;2.88;;;;;;;-3.43;89.71;97632.16;4986835;28;20278;-80
2022/01/13 04:59:50;;;;;;;11.85;2.60;;;;;;;-3.58;89.50;97620.28;4912362;28;20051;-80
2022/01/13 05:02:24;;;;;;;15.93;3.20;;;;;;;-3.48;89.65;97629.59;4981227;28;20047;-80
2022/01/13 05:04:55;;;;;;;9.77;3.20;;;;;;;-3.47;89.75;97633.88;4980616;28;20074;-80
2022/01/13 05:07:27;;;;;;;12.88;2.65;;;;;;;-3.51;89.90;97632.16;4981223;28;20042;-82
2022/01/13 05:09:58;;;;;;;12.05;3.08;;;;;;;-3.46;90.11;97642.38;4983993;28;20093;-80
2022/01/13 05:12:34;;;;;;;12.18;3.20;;;;;;;-3.44;89.87;97647.47;4989529;28;20054;-80
2022/01/13 05:15:08;;;;;;;8.60;2.67;;;;;;;-3.60;89.63;97611.75;4990530;28;20064;-81
2022/01/13 05:20:39;;;;;;;5.35;2.42;;;;;;;-3.44;89.42;97657.66;4978805;28;20050;-80
2022/01/13 05:23:13;;;;;;;7.72;2.22;;;;;;;-4.10;89.38;97543.84;4988441;28;20046;-80
2022/01/13 05:25:45;;;;;;;11.68;3.15;;;;;;;-3.50;89.82;97613.44;4991076;28;20050;-81
2022/01/13 05:28:17;;;;;;;16.65;3.88;;;;;;;-3.54;89.64;97642.41;4991217;28;20053;-81
2022/01/13 05:30:48;;;;;;;8.93;2.83;;;;;;;-3.45;90.02;97645.78;4991198;28;20069;-81
2022/01/13 05:33:21;;;;;;;9.07;3.00;;;;;;;-3.55;89.98;97620.25;4993022;28;20046;-82
2022/01/13 05:35:52;;;;;;;10.10;3.20;;;;;;;-3.55;90.00;97656.00;4992408;28;20046;-82
2022/01/13 05:38:23;;;;;;;6.10;2.25;;;;;;;-3.82;90.09;97605.00;4992066;28;20050;-83
2022/01/13 05:40:54;;;;;;;10.15;2.45;;;;;;;-3.58;90.16;97645.81;4994349;28;20117;-81
2022/01/13 05:43:25;;;;;;;12.10;2.97;;;;;;;-3.63;90.22;97656.88;4988647;28;20054;-81
2022/01/13 05:45:56;;;;;;;17.77;2.83;;;;;;;-3.65;90.27;97668.78;4989461;28;20069;-81
2022/01/13 05:48:31;;;;;;;9.07;2.40;;;;;;;-3.58;90.34;97671.31;4988774;28;20334;-81
2022/01/13 05:51:03;;;;;;;11.55;2.75;;;;;;;-3.61;90.32;97658.56;4986060;28;20062;-81
2022/01/13 05:53:34;;;;;;;7.88;2.30;;;;;;;-3.62;90.56;97674.75;4990945;28;20054;-81
2022/01/13 05:56:05;;;;;;;9.20;2.60;;;;;;;-3.65;90.41;97639.00;4992872;28;20054;-83
2022/01/13 06:01:37;;;;;;;11.70;2.95;;;;;;;-4.40;90.73;97545.59;4981567;28;20059;-82
2022/01/13 06:04:10;;;;;;;14.52;3.53;;;;;;;-3.71;90.80;97664.56;4992682;28;20342;-80
2022/01/13 06:06:41;;;;;;;10.05;2.38;;;;;;;-3.65;90.43;97674.72;4989157;28;20046;-81
2022/01/13 06:09:14;;;;;;;17.20;3.92;;;;;;;-3.82;90.74;97646.72;4985813;28;20335;-81
2022/01/13 06:11:55;;;;;;;20.00;4.80;;;;;;;-3.72;90.70;97658.59;4983437;28;20560;-82
2022/01/13 06:14:28;;;;;;;15.35;3.30;;;;;;;-3.67;90.97;97666.22;4983350;28;20051;-82
2022/01/13 06:16:59;;;;;;;10.13;3.17;;;;;;;-3.77;91.11;97674.75;4983221;28;20592;-81
2022/01/13 06:19:32;;;;;;;8.38;2.33;;;;;;;-3.69;91.16;97699.41;4981067;28;20361;-82
2022/01/13 06:22:03;;;;;;;13.95;2.30;;;;;;;-3.94;90.93;97637.38;4983476;28;20093;-81
2022/01/13 06:24:33;;;;;;;17.45;3.40;;;;;;;-3.73;90.92;97658.59;4983336;28;20365;-83
2022/01/13 06:27:07;;;;;;;9.40;2.67;;;;;;;-3.73;91.10;97694.31;4978981;28;20054;-81
2022/01/13 06:29:37;;;;;;;10.43;2.75;;;;;;;-4.01;91.14;97638.22;4981960;28;20050;-80
2022/01/13 06:32:09;;;;;;;9.20;2.85;;;;;;;-3.78;91.38;97678.16;4982876;28;20054;-83
2022/01/13 06:34:41;;;;;;;17.38;3.85;;;;;;;-3.76;91.62;97686.66;4983199;28;20050;-80
2022/01/13 06:37:12;;;;;;;17.13;2.95;;;;;;;-3.76;91.71;97682.41;4985058;28;20051;-79
2022/01/13 06:39:43;;;;;;;6.90;2.58;;;;;;;-3.83;91.58;97674.75;4982565;28;20117;-79
2022/01/13 06:42:15;;;;;;;14.35;3.03;;;;;;;-3.76;91.54;97681.56;4966770;28;20086;-78
2022/01/13 06:44:46;;;;;;;12.48;4.00;;;;;;;-3.77;91.69;97651.78;4989724;28;20362;-77
2022/01/13 06:47:17;;;;;;;11.57;2.35;;;;;;;-3.75;91.51;97693.47;4990386;28;20081;-78
2022/01/13 06:49:50;;;;;;;10.57;2.80;;;;;;;-3.75;91.41;97678.16;4988904;28;20085;-79
2022/01/13 06:52:21;;;;;;;11.27;2.63;;;;;;;-3.76;91.76;97666.25;4986463;28;20101;-78
2022/01/13 06:54:55;;;;;;;12.60;3.22;;;;;;;-3.77;91.87;97672.19;4987461;28;20109;-77
2022/01/13 06:57:25;;;;;;;11.40;2.60;;;;;;;-3.95;91.80;97650.94;4991133;28;20047;-77
2022/01/13 06:59:56;;;;;;;13.52;3.67;;;;;;;-3.81;91.73;97681.56;4991086;28;20042;-78
2022/01/13 07:02:31;;;;;;;6.03;2.50;;;;;;;-3.78;91.55;97668.81;4987605;28;20090;-77
2022/01/13 07:05:04;;;;;;;11.57;3.03;;;;;;;-3.78;91.81;97678.16;4989727;28;20051;-77
2022/01/13 07:07:36;;;;;;;8.70;2.55;;;;;;;-3.80;91.75;97664.56;4993116;28;20062;-76
2022/01/13 07:10:10;;;;;;;6.95;2.35;;;;;;;-4.02;91.50;97643.31;4985127;28;20062;-76
2022/01/13 07:12:41;;;;;;;10.18;3.47;;;;;;;-3.76;91.55;97663.72;4980604;28;20058;-78
2022/01/13 07:15:13;;;;;;;13.10;2.60;;;;;;;-3.77;91.87;97659.44;4981862;28;20323;-80
2022/01/13 07:17:44;;;;;;;12.98;3.17;;;;;;;-3.77;91.67;97664.53;4981713;28;20043;-80
2022/01/13 07:20:17;;;;;;;12.10;2.60;;;;;;;-3.87;91.80;97637.34;4978568;28;20053;-81
2022/01/13 07:22:48;;;;;;;14.90;2.90;;;;;;;-3.76;91.48;97656.06;4982121;28;20132;-79
2022/01/13 07:25:19;;;;;;;20.17;4.35;;;;;;;-3.78;91.61;97647.53;4979092;28;20065;-78
2022/01/13 07:27:50;;;;;;;10.45;3.15;;;;;;;-3.76;91.69;97656.06;4982003;28;20046;-78
2022/01/13 07:30:20;;;;;;;17.00;4.05;;;;;;;-3.77;91.57;97654.34;4981767;28;20054;-78
2022/01/13 07:32:54;;;;;;;9.02;3.05;;;;;;;-3.77;91.73;97633.91;4981552;28;20055;-77
2022/01/13 07:35:26;;;;;;;6.72;2.38;;;;;;;-3.75;92.09;97637.31;4982087;28;20243;-79
2022/01/13 07:37:58;;;;;;;6.63;2.42;;;;;;;-3.88;91.45;97636.50;4981995;28;20074;-79
2022/01/13 07:40:29;;;;;;;16.88;3.30;;;;;;;-3.74;91.28;97629.69;4974143;28;20050;-77
2022/01/13 07:43:01;;;;;;;8.00;2.90;;;;;;;-3.74;91.16;97628.84;4967849;28;20078;-78
2022/01/13 07:45:32;;;;;;;14.77;3.10;;;;;;;-3.72;91.26;97642.41;4989829;28;20050;-81
2022/01/13 07:48:03;;;;;;;14.00;3.38;;;;;;;-3.72;91.25;97647.53;4991020;28;20042;-78
2022/01/13 07:50:39;;;;;;;18.88;4.13;;;;;;;-3.76;91.58;97627.97;4988703;28;20066;-80
2022/01/13 07:53:10;;;;;;;11.70;3.50;;;;;;;-3.74;91.42;97623.72;4988516;28;20073;-80
2022/01/13 07:55:42;;;;;;;16.27;3.40;;;;;;;-3.69;91.47;97627.97;4991961;28;20043;-80
2022/01/13 07:58:13;;;;;;;12.85;2.58;;;;;;;-3.75;91.50;97622.00;4980968;28;20085;-80
2022/01/13 08:00:44;;;;;;;4.95;2.65;;;;;;;-3.69;91.57;97611.81;4981776;28;20058;-80
2022/01/13 08:03:15;;;;;;;11.93;2.55;;;;;;;-3.64;91.78;97629.63;4981804;28;20097;-80
2022/01/13 08:05:48;;;;;;;7.13;2.10;;;;;;;-3.64;91.77;97627.97;4981673;28;20082;-79
2022/01/13 08:08:19;;;;;;;5.07;2.60;;;;;;;-3.64;91.72;97615.19;4981332;28;20321;-78
2022/01/13 08:10:50;;;;;;;9.50;3.25;;;;;;;-3.63;91.74;97606.69;4981371;28;20109;-79
2022/01/13 08:13:20;;;;;;;4.38;2.53;;;;;;;-3.62;91.36;97622.84;4981601;28;20043;-79
2022/01/13 08:15:54;;;;;;;8.43;2.50;;;;;;;-3.62;91.58;97618.59;4981491;28;20058;-79
2022/01/13 08:21:15;;;;;;;3.25;2.08;;;;;;;-3.63;91.46;97608.38;4981306;28;20120;-81
2022/01/13 08:23:46;;;;;;;2.97;1.90;;;;;;;-3.69;91.59;97616.91;4981418;28;20051;-82
2022/01/13 08:26:17;;;;;;;6.53;1.90;;;;;;;-3.62;91.22;97610.06;4980095;28;20070;-81
2022/01/13 08:28:49;;;;;;;3.40;1.83;;;;;;;-3.63;91.73;97611.78;4976777;28;20054;-81
2022/01/13 08:31:20;;;;;;;6.38;2.00;;;;;;;-3.62;91.51;97618.59;4980923;28;20523;-82
2022/01/13 08:33:51;;;;;;;4.32;1.88;;;;;;;-3.80;91.41;97562.50;4979912;28;20106;-81
2022/01/13 08:36:24;;;;;;;6.60;2.40;;;;;;;-3.62;91.66;97595.63;4980869;28;20300;-82
2022/01/13 08:38:55;;;;;;;4.05;2.28;;;;;;;-3.61;91.80;97601.59;4981091;28;20093;-82
2022/01/13 08:41:27;;;;;;;5.00;1.75;;;;;;;-3.67;91.55;97597.31;4986629;28;20046;-80
2022/01/13 08:43:57;;;;;;;5.38;2.10;;;;;;;-3.69;91.94;97586.28;4991112;28;20066;-80
2022/01/13 08:46:29;;;;;;;2.50;1.77;;;;;;;-3.65;91.73;97582.84;4984466;28;20236;-80
2022/01/13 08:49:00;;;;;;;3.63;1.90;;;;;;;-3.65;92.06;97585.41;4979105;28;20050;-81
2022/01/13 08:51:33;;;;;;;2.15;1.40;;;;;;;-3.65;91.94;97582.00;4980802;28;20335;-81
2022/01/13 08:54:05;;;;;;;4.22;1.55;;;;;;;-3.69;92.00;97592.25;4980897;28;20291;-80
2022/01/13 08:56:38;;;;;;;2.72;1.70;;;;;;;-3.73;92.42;97587.16;4980944;28;20046;-80
2022/01/13 08:59:09;;;;;;;4.35;1.67;;;;;;;-3.86;91.96;97557.41;4980944;28;20054;-82
2022/01/13 09:01:40;;;;;;;2.90;1.50;;;;;;;-4.42;92.17;97486.13;4984702;28;20554;-83
2022/01/13 09:04:12;;;;;;;2.45;1.63;;;;;;;-3.69;92.45;97583.75;4984686;28;20043;-81
2022/01/13 09:06:46;;;;;;;3.03;1.80;;;;;;;-3.72;92.39;97576.06;4983261;28;20050;-84
2022/01/13 09:09:17;;;;;;;1.63;1.15;;;;;;;-3.83;92.50;97547.19;4984485;28;20050;-83
2022/01/13 09:11:48;;;;;;;3.55;2.03;;;;;;;-3.71;92.51;97572.69;4984641;28;20085;-81
2022/01/13 09:14:25;;;;;;;3.42;1.80;;;;;;;-3.71;92.70;97573.53;4984770;28;20050;-81
2022/01/13 09:16:58;;;;;;;3.60;1.90;;;;;;;-3.71;92.37;97577.78;4984669;28;20095;-84
2022/01/13 09:19:29;;;;;;;3.58;1.40;;;;;;;-3.70;92.76;97576.91;4984721;28;20242;-84
2022/01/13 09:22:02;;;;;;;1.20;1.10;;;;;;;-3.73;92.51;97570.13;4984583;28;20250;-82
2022/01/13 09:24:33;;;;;;;2.20;1.27;;;;;;;-3.70;92.66;97569.25;4984553;28;20046;-82
2022/01/13 09:27:06;;;;;;;3.20;1.00;;;;;;;-3.68;92.29;97570.13;4982145;28;20058;-86
2022/01/13 09:29:37;;;;;;;1.55;1.30;;;;;;;-3.69;92.41;97570.97;4980804;28;20284;-82
2022/01/13 09:32:09;;;;;;;2.65;1.10;;;;;;;-4.01;92.28;97510.69;4984377;28;20093;-82
2022/01/13 09:34:41;;;;;;;2.30;1.40;;;;;;;-3.70;92.40;97575.22;4984339;28;20078;-82
2022/01/13 09:37:18;;;;;;;2.65;1.20;;;;;;;-3.93;92.01;97534.47;4984519;28;20118;-81
2022/01/13 09:39:49;;;;;;;2.55;1.40;;;;;;;-3.70;92.05;97564.16;4984243;28;20047;-81
2022/01/13 09:42:22;;;;;;;2.75;1.20;;;;;;;-3.70;92.22;97564.16;4984125;28;20089;-82
2022/01/13 09:44:54;;;;;;;1.63;1.20;;;;;;;-3.70;91.68;97570.09;4984050;28;20050;-82
2022/01/13 09:47:26;;;;;;;2.25;1.50;;;;;;;-3.70;91.97;97569.25;4984040;28;20055;-82
2022/01/13 09:50:00;;;;;;;2.60;1.63;;;;;;;-3.73;91.73;97564.19;4984042;28;20287;-83
2022/01/13 09:52:33;;;;;;;2.42;1.88;;;;;;;-3.66;91.29;97560.75;4983303;28;20213;-85
2022/01/13 09:55:07;;;;;;;4.20;2.38;;;;;;;-3.83;90.90;97531.88;4984096;28;20053;-84
2022/01/13 09:57:43;;;;;;;2.45;1.70;;;;;;;-3.61;90.04;97553.94;4984929;28;20046;-88
2022/01/13 10:00:16;;;;;;;6.85;1.85;;;;;;;-3.51;89.75;97544.53;4984225;28;20043;-81
2022/01/13 10:02:48;;;;;;;3.63;1.60;;;;;;;-3.50;89.17;97556.44;4983621;28;20195;-83
2022/01/13 10:05:20;;;;;;;7.38;1.77;;;;;;;-3.50;88.47;97536.84;4983711;28;20285;-84
2022/01/13 10:07:55;;;;;;;3.30;1.75;;;;;;;-3.44;88.64;97530.03;4984044;28;20216;-83
2022/01/13 10:10:31;;;;;;;3.05;1.63;;;;;;;-3.50;90.01;97536.84;4983116;28;20074;-83
2022/01/13 10:13:09;;;;;;;6.47;1.80;;;;;;;-3.60;90.95;97519.88;4979687;28;20050;-85
2022/01/13 10:18:45;;;;;;;5.63;1.70;;;;;;;-3.92;91.90;97456.22;4984339;28;20243;-83
2022/01/13 10:21:20;;;;;;;3.22;1.30;;;;;;;-3.64;92.15;97515.66;4987843;28;20042;-84
2022/01/13 10:24:12;;;;;;;2.85;1.70;;;;;;;-3.64;92.50;97502.91;4987908;28;20110;-87
2022/01/13 10:27:00;;;;;;;17.38;2.08;;;;;;;-3.70;92.70;97493.56;4970419;28;20062;-84
2022/01/13 10:29:49;;;;;;;6.10;1.65;;;;;;;-3.64;93.19;97479.94;4986924;28;20050;-83
2022/01/13 10:32:21;;;;;;;;;;;;;;;-3.61;92.99;97468.88;4986776;28;20082;-84
2022/01/13 10:35:00;;;;;;;3.30;1.48;;;;;;;-3.60;93.14;97509.69;4987117;28;20055;-85
2022/01/13 10:37:33;;;;;;;1.75;1.25;;;;;;;-3.59;93.18;97490.97;4985293;28;20334;-85
2022/01/13 10:40:09;;;;;;;7.47;2.15;;;;;;;-3.58;93.48;97477.34;4983058;28;20066;-82
2022/01/13 10:43:09;;;;;;;5.55;1.83;;;;;;;-3.81;93.26;97438.34;4982866;28;20049;-83
2022/01/13 10:45:46;;;;;;;6.20;2.17;;;;;;;-3.54;93.62;97484.13;4981712;28;20074;-81
2022/01/13 10:48:22;;;;;;;9.57;2.40;;;;;;;-3.52;93.79;97477.34;4983214;28;20086;-82
2022/01/13 10:50:58;;;;;;;8.43;2.58;;;;;;;-3.51;93.70;97468.81;4981524;28;20074;-81
2022/01/13 10:53:34;;;;;;;10.77;2.95;;;;;;;-3.50;93.97;97479.84;4968156;28;20062;-81
2022/01/13 10:56:10;;;;;;;8.68;2.70;;;;;;;-3.81;93.94;97403.47;4981809;28;20129;-81
2022/01/13 10:58:46;;;;;;;10.85;2.00;;;;;;;-3.62;93.83;97428.88;4982843;28;20234;-83
2022/01/13 11:01:23;;;;;;;12.05;3.10;;;;;;;-3.42;94.07;97461.94;4983214;28;20082;-84
2022/01/13 11:03:55;;;;;;;7.22;2.22;;;;;;;-3.39;94.18;97472.16;4980446;28;20121;-84
2022/01/13 11:06:29;;;;;;;13.40;3.45;;;;;;;-3.37;94.12;97466.19;4982962;28;20102;-81
2022/01/13 11:09:00;;;;;;;10.95;2.53;;;;;;;-3.36;93.85;97462.75;4988986;28;20267;-81
2022/01/13 11:11:35;;;;;;;9.15;2.33;;;;;;;-3.35;93.80;97473.81;4990836;28;20402;-81
2022/01/13 11:14:10;;;;;;;12.55;3.15;;;;;;;-3.34;93.93;97450.00;4987597;28;20042;-81
2022/01/13 11:16:44;;;;;;;11.18;2.60;;;;;;;-3.37;93.94;97466.19;4988269;28;20390;-80
2022/01/13 11:19:18;;;;;;;15.48;2.92;;;;;;;-3.63;93.62;97428.03;4971691;28;20344;-80
2022/01/13 11:21:51;;;;;;;9.90;2.50;;;;;;;-3.38;93.63;97463.63;4990187;28;20046;-81
2022/01/13 11:24:25;;;;;;;12.27;3.33;;;;;;;-3.34;93.88;97485.75;4987785;28;20042;-81
2022/01/13 11:26:59;;;;;;;8.30;2.17;;;;;;;-3.33;93.82;97477.22;4987970;28;20078;-81
2022/01/13 11:29:31;;;;;;;9.63;2.58;;;;;;;-3.33;93.87;97454.25;4991019;28;20050;-81
2022/01/13 11:32:03;;;;;;;7.22;2.33;;;;;;;-3.33;93.81;97482.31;4989201;28;20054;-80
2022/01/13 11:34:34;;;;;;;5.72;2.30;;;;;;;-3.55;94.02;97456.91;4986266;28;20247;-81
2022/01/13 11:37:06;;;;;;;7.35;2.75;;;;;;;-3.31;94.06;97490.81;4980039;28;20054;-80
2022/01/13 11:39:40;;;;;;;12.43;2.97;;;;;;;-3.32;93.96;97492.53;4963032;28;20140;-80
2022/01/13 11:42:14;;;;;;;7.82;2.25;;;;;;;-3.62;93.64;97450.16;4981600;28;20047;-80
2022/01/13 11:44:45;;;;;;;7.40;2.17;;;;;;;-3.32;93.81;97495.09;4981947;28;20102;-80
2022/01/13 11:47:22;;;;;;;16.23;2.35;;;;;;;-3.33;94.10;97507.84;4983359;28;20556;-79
2022/01/13 11:50:03;;;;;;;9.05;1.88;;;;;;;-3.39;93.71;97503.63;4981885;28;20086;-83
2022/01/13 11:52:42;;;;;;;5.22;2.28;;;;;;;-3.35;94.13;97499.34;4981812;28;20105;-89
2022/01/13 11:55:25;;;;;;;5.22;1.95;;;;;;;-3.66;94.09;97443.38;4981966;28;20046;-82
2022/01/13 11:58:19;;;;;;;11.73;2.72;;;;;;;-3.34;94.27;97521.50;4975620;28;20051;-83
2022/01/13 12:00:51;;;;;;;6.97;1.98;;;;;;;-3.30;93.92;97523.16;4981594;28;20432;-81
2022/01/13 12:03:27;;;;;;;4.85;2.28;;;;;;;-3.29;93.85;97550.41;4977925;28;20347;-82
2022/01/13 12:06:00;;;;;;;7.63;2.15;;;;;;;-3.28;93.95;97531.66;4981325;28;20082;-81
2022/01/13 12:08:56;;;;;;;4.35;1.95;;;;;;;-3.27;93.59;97556.31;4981095;28;20164;-81
2022/01/13 12:11:50;;;;;;;6.15;2.42;;;;;;;-3.32;93.65;97551.28;4964588;28;20082;-81
2022/01/13 12:14:45;;;;;;;10.40;2.42;;;;;;;-3.26;93.36;97561.44;4981421;28;20055;-81
2022/01/13 12:17:30;;;;;;;6.47;2.40;;;;;;;-3.25;93.30;97552.06;4968824;28;20070;-81
2022/01/13 12:20:03;;;;;;;15.95;2.80;;;;;;;-3.27;93.03;97553.78;4981376;28;20113;-81